Time;durP1;ratioP1;P1;durP2;ratioP2;P2;SDS_P1;SDS_P2;PMS_P1;PMS_P2;Temp;Humidity;BMP_temperature;BMP_pressure;BME280_temperature;BME280_humidity;BME280_pressure;Samples;Min_cycle;Max_cycle;Signal;HPM_P1;HPM_P2
2022/11/26 00:02:48;;;;;;;8.37;4.90;;;9.20;99.90;;;;;;10338099;28;20623;-77
2022/11/26 00:07:55;;;;;;;6.10;4.60;;;9.20;99.90;;;;;;10334306;28;20248;-76
2022/11/26 00:12:58;;;;;;;14.47;5.70;;;9.10;99.90;;;;;;10339816;28;20199;-79
2022/11/26 00:18:00;;;;;;;6.57;4.50;;;9.10;99.90;;;;;;10381961;28;20701;-77
2022/11/26 00:23:03;;;;;;;8.10;4.80;;;9.00;99.90;;;;;;10358821;28;20219;-76
2022/11/26 00:28:29;;;;;;;8.10;4.70;;;9.00;99.90;;;;;;10346427;28;20238;-77
2022/11/26 00:33:31;;;;;;;6.77;3.73;;;9.00;99.90;;;;;;10350293;28;20290;-76
2022/11/26 00:38:33;;;;;;;7.27;4.40;;;9.00;99.90;;;;;;10372154;28;20222;-76
2022/11/26 00:43:37;;;;;;;8.90;4.83;;;8.90;99.90;;;;;;10379555;28;20217;-77
2022/11/26 00:48:39;;;;;;;5.60;3.77;;;9.00;99.90;;;;;;10351176;28;20299;-78
2022/11/26 00:53:41;;;;;;;7.67;4.50;;;9.00;99.90;;;;;;10375125;28;20561;-78
2022/11/26 00:58:46;;;;;;;9.43;4.43;;;9.10;99.90;;;;;;10370189;28;20218;-78
2022/11/26 01:03:48;;;;;;;10.47;7.10;;;9.20;99.90;;;;;;10331350;28;20218;-78
2022/11/26 01:08:50;;;;;;;5.10;3.83;;;9.20;99.90;;;;;;10389041;28;20734;-77
2022/11/26 01:13:54;;;;;;;5.60;4.00;;;9.20;99.90;;;;;;10370934;28;20281;-77
2022/11/26 01:19:01;;;;;;;4.27;3.40;;;9.30;99.90;;;;;;10378242;28;20249;-77
2022/11/26 01:24:03;;;;;;;11.60;5.17;;;9.30;99.90;;;;;;10379039;28;20203;-77
2022/11/26 01:29:06;;;;;;;9.57;4.70;;;9.40;99.90;;;;;;10376745;28;20298;-76
2022/11/26 01:34:08;;;;;;;13.70;4.20;;;9.50;99.90;;;;;;10356402;28;20201;-78
2022/11/26 01:39:15;;;;;;;6.10;3.90;;;9.50;99.90;;;;;;10378162;28;20219;-78
2022/11/26 01:44:20;;;;;;;9.67;4.87;;;9.50;99.90;;;;;;10379345;28;20694;-78
2022/11/26 01:49:25;;;;;;;10.03;6.47;;;9.50;99.90;;;;;;10380347;28;20249;-78
2022/11/26 01:54:27;;;;;;;11.00;5.87;;;9.60;99.90;;;;;;10363779;28;20675;-78
2022/11/26 01:59:34;;;;;;;6.43;3.67;;;9.60;99.90;;;;;;10377911;28;20816;-78
2022/11/26 02:04:41;;;;;;;5.07;3.60;;;9.60;99.90;;;;;;10365491;28;20289;-77
2022/11/26 02:09:44;;;;;;;6.57;4.37;;;9.60;99.90;;;;;;10388847;28;20661;-78
2022/11/26 02:14:48;;;;;;;10.07;4.60;;;9.60;99.90;;;;;;10380332;28;20199;-77
2022/11/26 02:20:19;;;;;;;9.73;4.00;;;9.60;99.90;;;;;;10379812;28;20246;-79
2022/11/26 02:25:35;;;;;;;6.47;3.50;;;9.60;99.90;;;;;;10380069;28;20305;-78
2022/11/26 02:30:43;;;;;;;10.13;3.67;;;9.60;99.90;;;;;;10380603;28;20308;-78
2022/11/26 02:35:47;;;;;;;11.20;5.30;;;9.60;99.90;;;;;;10379311;28;20264;-78
2022/11/26 02:40:49;;;;;;;8.40;5.20;;;9.50;99.90;;;;;;10380677;28;20195;-78
2022/11/26 02:45:56;;;;;;;8.17;3.80;;;9.60;99.90;;;;;;10380278;28;20287;-78
2022/11/26 02:51:00;;;;;;;7.93;3.90;;;9.60;99.90;;;;;;10384561;28;20197;-77
2022/11/26 02:56:05;;;;;;;5.17;3.40;;;9.60;99.90;;;;;;10382348;28;20262;-78
2022/11/26 03:01:13;;;;;;;5.73;4.00;;;9.50;99.90;;;;;;10377373;28;20205;-78
2022/11/26 03:06:16;;;;;;;11.67;4.03;;;9.50;99.90;;;;;;10374345;28;20226;-78
2022/11/26 03:11:18;;;;;;;7.70;4.10;;;9.50;99.90;;;;;;10357114;28;20257;-77
2022/11/26 03:16:21;;;;;;;4.70;3.97;;;9.60;99.90;;;;;;10368260;28;20222;-77
2022/11/26 03:21:23;;;;;;;4.70;4.20;;;9.60;99.90;;;;;;10367805;28;20191;-77
2022/11/26 03:26:25;;;;;;;9.00;4.63;;;9.60;99.90;;;;;;10375832;28;20218;-80
2022/11/26 03:31:29;;;;;;;6.60;4.43;;;9.60;99.90;;;;;;10376919;28;20293;-80
2022/11/26 03:36:31;;;;;;;6.20;4.97;;;9.60;99.90;;;;;;10375792;28;20218;-80
2022/11/26 03:41:33;;;;;;;8.90;4.60;;;9.50;99.90;;;;;;10385749;28;20222;-79
2022/11/26 03:46:37;;;;;;;10.43;4.97;;;9.50;99.90;;;;;;10339569;28;20298;-78
2022/11/26 03:51:39;;;;;;;11.93;5.50;;;9.40;99.90;;;;;;10353721;28;20194;-78
2022/11/26 03:56:41;;;;;;;7.17;5.77;;;9.40;99.90;;;;;;10389733;28;20210;-78
2022/11/26 04:01:45;;;;;;;5.87;5.10;;;9.40;99.90;;;;;;10343637;28;20639;-78
2022/11/26 04:06:47;;;;;;;8.10;5.50;;;9.30;99.90;;;;;;10378262;28;20222;-77
2022/11/26 04:11:49;;;;;;;9.47;5.10;;;9.20;99.90;;;;;;10380091;28;20190;-78
2022/11/26 04:16:52;;;;;;;6.97;4.77;;;9.20;99.90;;;;;;10385808;28;20600;-76
2022/11/26 04:21:54;;;;;;;5.50;4.80;;;9.10;99.90;;;;;;10377352;28;20696;-78
2022/11/26 04:26:56;;;;;;;5.70;5.10;;;9.10;99.90;;;;;;10377515;28;20226;-78
2022/11/26 04:31:59;;;;;;;8.10;6.10;;;9.10;99.90;;;;;;10382467;28;20199;-77
2022/11/26 04:37:01;;;;;;;18.67;10.13;;;9.10;99.90;;;;;;10369862;28;20569;-79
2022/11/26 04:42:04;;;;;;;12.80;8.87;;;9.10;99.90;;;;;;10349762;28;20226;-76
2022/11/26 04:47:07;;;;;;;9.27;5.87;;;9.20;99.90;;;;;;10373808;28;20306;-76
2022/11/26 04:52:10;;;;;;;13.00;6.40;;;9.20;99.90;;;;;;10375619;28;20205;-77
2022/11/26 04:57:12;;;;;;;20.27;10.83;;;9.20;99.90;;;;;;10375155;28;20225;-79
2022/11/26 05:02:15;;;;;;;21.77;9.77;;;9.10;99.90;;;;;;10375874;28;20203;-80
2022/11/26 05:07:18;;;;;;;14.27;7.43;;;9.10;99.90;;;;;;10374402;28;20273;-76
2022/11/26 05:12:20;;;;;;;10.50;8.43;;;9.00;99.90;;;;;;10374917;28;20230;-78
2022/11/26 05:17:23;;;;;;;9.80;6.10;;;8.90;99.90;;;;;;10374681;28;20233;-77
2022/11/26 05:22:27;;;;;;;9.13;6.37;;;8.80;99.90;;;;;;10356435;28;20260;-77
2022/11/26 05:27:29;;;;;;;6.93;5.70;;;8.70;99.90;;;;;;10373763;28;20236;-78
2022/11/26 05:32:33;;;;;;;9.73;6.37;;;8.60;99.90;;;;;;10372061;28;20229;-78
2022/11/26 05:37:35;;;;;;;11.97;6.20;;;8.50;99.90;;;;;;10373625;28;20806;-78
2022/11/26 05:42:37;;;;;;;9.30;7.00;;;8.40;99.90;;;;;;10373330;28;20206;-78
2022/11/26 05:47:40;;;;;;;10.50;7.30;;;8.30;99.90;;;;;;10372655;28;20227;-77
2022/11/26 05:52:42;;;;;;;14.37;6.90;;;8.20;99.90;;;;;;10371530;28;20575;-77
2022/11/26 05:57:44;;;;;;;13.13;8.23;;;8.10;99.90;;;;;;10372390;28;20221;-78
2022/11/26 06:02:48;;;;;;;10.83;8.37;;;8.10;99.90;;;;;;10372389;28;20202;-77
2022/11/26 06:07:50;;;;;;;8.03;6.17;;;8.00;99.90;;;;;;10372963;28;20213;-79
2022/11/26 06:12:52;;;;;;;10.67;7.20;;;8.00;99.90;;;;;;10388352;28;20194;-79
2022/11/26 06:17:55;;;;;;;9.83;7.10;;;8.00;99.90;;;;;;10384610;28;20215;-79
2022/11/26 06:22:57;;;;;;;14.80;8.40;;;7.90;99.90;;;;;;10383469;28;20253;-79
2022/11/26 06:27:59;;;;;;;16.63;10.10;;;7.80;99.90;;;;;;10382844;28;20215;-79
2022/11/26 06:33:03;;;;;;;13.93;10.20;;;7.80;99.90;;;;;;10362374;28;20195;-79
2022/11/26 06:38:05;;;;;;;15.27;8.13;;;7.70;99.90;;;;;;10379975;28;20210;-78
2022/11/26 06:43:07;;;;;;;11.63;8.27;;;7.70;99.90;;;;;;10378940;28;20187;-78
2022/11/26 06:48:10;;;;;;;9.00;7.83;;;7.70;99.90;;;;;;10379852;28;20585;-79
2022/11/26 06:53:13;;;;;;;10.03;7.17;;;7.60;99.90;;;;;;10383298;28;20198;-78
2022/11/26 06:58:15;;;;;;;11.20;7.63;;;7.60;99.90;;;;;;10380091;28;20225;-79
2022/11/26 07:03:18;;;;;;;10.40;7.83;;;7.50;99.90;;;;;;10382612;28;20282;-79
2022/11/26 07:08:20;;;;;;;18.30;12.20;;;7.50;99.90;;;;;;10376506;28;20226;-76
2022/11/26 07:13:22;;;;;;;17.10;11.10;;;7.50;99.90;;;;;;10371755;28;20632;-76
2022/11/26 07:18:26;;;;;;;15.17;9.40;;;7.50;99.90;;;;;;10370516;28;20214;-76
2022/11/26 07:23:28;;;;;;;17.93;14.83;;;7.40;99.90;;;;;;10353179;28;20222;-79
2022/11/26 07:28:30;;;;;;;14.73;11.77;;;7.50;99.90;;;;;;10369943;28;20218;-76
2022/11/26 07:33:34;;;;;;;13.83;12.27;;;7.60;99.90;;;;;;10370375;28;20197;-78
2022/11/26 07:38:36;;;;;;;15.27;13.67;;;7.70;99.90;;;;;;10370229;28;20272;-76
2022/11/26 07:43:40;;;;;;;15.40;11.50;;;7.80;99.90;;;;;;10369136;28;20198;-76
2022/11/26 07:48:43;;;;;;;17.10;12.73;;;7.90;99.90;;;;;;10327521;28;20227;-76
2022/11/26 07:53:46;;;;;;;15.40;11.20;;;8.00;99.90;;;;;;10320312;28;20195;-79
2022/11/26 07:58:48;;;;;;;14.67;12.47;;;8.20;99.90;;;;;;10377822;28;20218;-81
2022/11/26 08:03:52;;;;;;;23.40;14.10;;;8.40;99.90;;;;;;10358947;28;20262;-77
2022/11/26 08:08:54;;;;;;;21.17;13.90;;;8.50;99.90;;;;;;10355490;28;20392;-80
2022/11/26 08:13:58;;;;;;;21.50;11.87;;;8.60;99.90;;;;;;10377827;28;20202;-81
2022/11/26 08:19:04;;;;;;;13.80;11.97;;;8.70;99.90;;;;;;10380842;28;20218;-81
2022/11/26 08:24:06;;;;;;;14.37;11.73;;;8.80;99.90;;;;;;10389828;28;20233;-80
2022/11/26 08:29:09;;;;;;;16.37;12.47;;;8.90;99.90;;;;;;10399383;28;20214;-81
2022/11/26 08:34:14;;;;;;;14.77;12.00;;;8.90;99.90;;;;;;10399408;28;20225;-80
2022/11/26 08:39:18;;;;;;;12.10;10.90;;;9.10;99.90;;;;;;10361360;28;20302;-79
2022/11/26 08:44:20;;;;;;;16.33;11.67;;;9.10;99.90;;;;;;10362441;28;20281;-80
2022/11/26 08:49:24;;;;;;;12.87;11.57;;;9.10;99.90;;;;;;10363709;28;20225;-79
2022/11/26 08:54:26;;;;;;;13.60;11.77;;;9.10;99.90;;;;;;10381207;28;20630;-81
2022/11/26 08:59:28;;;;;;;18.90;14.00;;;9.10;99.90;;;;;;10362452;28;20230;-79
2022/11/26 09:04:32;;;;;;;22.90;16.07;;;9.10;99.90;;;;;;10379532;28;20194;-79
2022/11/26 09:09:34;;;;;;;16.77;13.80;;;9.00;99.90;;;;;;10380430;28;20281;-80
2022/11/26 09:14:38;;;;;;;18.17;11.37;;;9.00;99.90;;;;;;10363903;28;20195;-80
2022/11/26 09:19:41;;;;;;;16.63;13.73;;;9.00;99.90;;;;;;10381506;28;20219;-80
2022/11/26 09:24:43;;;;;;;15.37;13.73;;;8.90;99.90;;;;;;10365225;28;20207;-80
2022/11/26 09:29:45;;;;;;;16.40;14.23;;;8.90;99.90;;;;;;10383747;28;20683;-79
2022/11/26 09:34:49;;;;;;;11.87;9.80;;;8.90;99.90;;;;;;10393798;28;20277;-78
2022/11/26 09:39:53;;;;;;;11.23;7.80;;;8.90;99.90;;;;;;10387858;28;20215;-80
2022/11/26 09:45:11;;;;;;;17.53;12.87;;;9.00;99.90;;;;;;10356382;28;20210;-80
2022/11/26 09:50:26;;;;;;;12.40;9.57;;;9.00;99.90;;;;;;10383420;28;20204;-76
2022/11/26 09:55:31;;;;;;;14.10;11.30;;;9.00;99.90;;;;;;10380304;28;20220;-79
2022/11/26 10:00:37;;;;;;;15.10;13.57;;;9.10;99.90;;;;;;10380957;28;20233;-78
2022/11/26 10:05:51;;;;;;;16.87;15.10;;;9.10;99.90;;;;;;10375090;28;20215;-75
2022/11/26 10:10:57;;;;;;;15.83;13.43;;;9.10;99.90;;;;;;10371838;28;20601;-77
2022/11/26 10:16:09;;;;;;;17.10;14.60;;;9.20;99.90;;;;;;10329847;28;20270;-75
2022/11/26 10:21:22;;;;;;;14.30;12.83;;;9.20;99.90;;;;;;10331845;28;20191;-76
2022/11/26 10:26:29;;;;;;;17.03;14.20;;;9.20;99.90;;;;;;10331888;28;20605;-75
2022/11/26 10:31:33;;;;;;;19.77;13.83;;;9.30;99.90;;;;;;10355091;28;20202;-80
2022/11/26 10:36:39;;;;;;;13.93;12.40;;;9.50;99.90;;;;;;10374550;28;20751;-75
2022/11/26 10:41:41;;;;;;;16.97;14.00;;;9.70;99.90;;;;;;10370319;28;20190;-75
2022/11/26 10:46:43;;;;;;;20.47;12.60;;;9.70;99.90;;;;;;10370171;28;20226;-76
2022/11/26 10:51:48;;;;;;;19.83;13.67;;;9.80;99.90;;;;;;10351991;28;20209;-78
2022/11/26 10:56:52;;;;;;;16.30;14.03;;;9.70;99.90;;;;;;10366423;28;20534;-77
2022/11/26 11:01:55;;;;;;;17.13;13.10;;;9.70;99.90;;;;;;10353695;28;20199;-78
2022/11/26 11:07:02;;;;;;;18.80;11.40;;;9.70;99.90;;;;;;10372325;28;20218;-81
2022/11/26 11:12:20;;;;;;;17.47;10.10;;;9.70;99.90;;;;;;10373905;28;20245;-78
2022/11/26 11:17:31;;;;;;;17.10;11.77;;;9.70;99.90;;;;;;10351291;28;20206;-79
2022/11/26 11:22:34;;;;;;;15.43;10.63;;;9.70;99.90;;;;;;10363901;28;20285;-77
2022/11/26 11:27:42;;;;;;;19.07;11.17;;;9.70;99.90;;;;;;10369526;28;20218;-77
2022/11/26 11:32:44;;;;;;;15.00;11.03;;;9.70;99.90;;;;;;10369407;28;20662;-80
2022/11/26 11:37:52;;;;;;;13.50;9.43;;;9.70;99.90;;;;;;10351933;28;20230;-75
2022/11/26 11:42:58;;;;;;;17.20;11.20;;;9.70;99.90;;;;;;10355095;28;20278;-79
2022/11/26 11:48:12;;;;;;;17.40;12.63;;;9.70;99.90;;;;;;10367990;28;20610;-76
2022/11/26 11:53:32;;;;;;;18.47;12.60;;;9.70;99.90;;;;;;10368886;28;20560;-77
2022/11/26 11:59:05;;;;;;;12.97;9.47;;;9.80;99.90;;;;;;10368792;28;20296;-76
2022/11/26 12:04:25;;;;;;;13.73;8.60;;;9.80;99.90;;;;;;10362029;28;20272;-77
2022/11/26 12:09:32;;;;;;;15.23;7.30;;;9.80;99.90;;;;;;10365003;28;20218;-76
2022/11/26 12:14:38;;;;;;;14.57;8.10;;;9.80;99.90;;;;;;10367074;28;20261;-78
2022/11/26 12:19:46;;;;;;;13.30;8.93;;;9.90;99.90;;;;;;10367229;28;20581;-75
2022/11/26 12:24:54;;;;;;;12.63;8.43;;;9.90;99.90;;;;;;10368746;28;20278;-76
2022/11/26 12:30:00;;;;;;;12.50;7.33;;;9.90;99.90;;;;;;10368776;28;20673;-80
2022/11/26 12:35:07;;;;;;;11.30;7.67;;;10.00;99.90;;;;;;10368841;28;20641;-77
2022/11/26 12:40:21;;;;;;;19.93;10.90;;;10.00;99.90;;;;;;10368861;28;20234;-76
2022/11/26 12:45:34;;;;;;;10.53;8.93;;;10.00;99.90;;;;;;10326168;28;20220;-76
2022/11/26 12:50:42;;;;;;;18.07;14.00;;;10.00;99.90;;;;;;10348229;28;20274;-79
2022/11/26 12:55:53;;;;;;;14.17;8.87;;;10.00;99.90;;;;;;10374822;28;20276;-78
2022/11/26 13:00:55;;;;;;;9.63;7.47;;;10.00;99.90;;;;;;10370121;28;20201;-77
2022/11/26 13:06:03;;;;;;;12.57;8.23;;;10.00;99.90;;;;;;10381996;22;21579;-81
2022/11/26 13:11:19;;;;;;;13.53;7.13;;;10.00;99.90;;;;;;10325311;28;20199;-78
2022/11/26 13:16:33;;;;;;;12.97;9.20;;;9.90;99.90;;;;;;10341447;28;20215;-80
2022/11/26 13:21:48;;;;;;;16.60;8.43;;;9.90;99.90;;;;;;10318668;28;20255;-81
2022/11/26 13:27:05;;;;;;;15.63;8.33;;;9.90;99.90;;;;;;10300254;28;20289;-80
2022/11/26 13:32:32;;;;;;;12.20;7.80;;;9.90;99.90;;;;;;10304463;28;20201;-80
2022/11/26 13:37:59;;;;;;;14.33;8.70;;;9.90;99.90;;;;;;10320321;28;20765;-80
2022/11/26 13:43:48;;;;;;;11.57;7.30;;;9.90;99.90;;;;;;10302517;28;20235;-80
2022/11/26 13:48:58;;;;;;;14.90;9.37;;;9.90;99.90;;;;;;10297486;28;20642;-80
2022/11/26 13:54:07;;;;;;;10.80;8.10;;;9.90;99.90;;;;;;10336138;28;20206;-80
2022/11/26 13:59:16;;;;;;;11.00;6.57;;;9.90;99.90;;;;;;10299603;28;20222;-80
2022/11/26 14:04:52;;;;;;;14.00;6.23;;;9.90;99.90;;;;;;10298199;28;20202;-80
2022/11/26 14:09:56;;;;;;;13.70;7.20;;;9.80;99.90;;;;;;10335351;28;20381;-80
2022/11/26 14:14:59;;;;;;;13.43;6.37;;;9.80;99.90;;;;;;10335639;28;20207;-80
2022/11/26 14:20:08;;;;;;;6.60;5.90;;;9.70;99.90;;;;;;10294881;28;20216;-80
2022/11/26 14:25:14;;;;;;;7.90;5.70;;;9.70;99.90;;;;;;10317578;28;20206;-80
2022/11/26 14:30:23;;;;;;;11.90;6.90;;;9.60;99.90;;;;;;10277322;28;20587;-80
2022/11/26 14:35:27;;;;;;;11.33;6.10;;;9.60;99.90;;;;;;10277798;28;20254;-81
2022/11/26 14:40:32;;;;;;;7.20;5.37;;;9.50;99.90;;;;;;10294683;28;20262;-80
2022/11/26 14:45:36;;;;;;;7.57;6.00;;;9.50;99.90;;;;;;10308005;28;20266;-80
2022/11/26 14:50:38;;;;;;;8.17;6.00;;;9.50;99.90;;;;;;10317132;28;20353;-81
2022/11/26 14:55:43;;;;;;;10.67;7.63;;;9.40;99.90;;;;;;10308689;28;20195;-80
2022/11/26 15:01:01;;;;;;;10.10;6.63;;;9.30;99.90;;;;;;10320117;28;20203;-80
2022/11/26 15:06:04;;;;;;;7.37;5.50;;;9.30;99.90;;;;;;10338418;28;20226;-80
2022/11/26 15:11:07;;;;;;;9.43;6.07;;;9.30;99.90;;;;;;10332696;28;20219;-80
2022/11/26 15:16:27;;;;;;;14.30;7.20;;;9.20;99.90;;;;;;10294632;28;20208;-80
2022/11/26 15:21:29;;;;;;;10.30;6.00;;;9.20;99.90;;;;;;10316642;28;20202;-80
2022/11/26 15:26:34;;;;;;;17.00;12.53;;;9.10;99.90;;;;;;10316721;28;20640;-80
2022/11/26 15:31:42;;;;;;;12.40;8.00;;;9.10;99.90;;;;;;10334755;28;20218;-80
2022/11/26 15:36:44;;;;;;;12.30;10.57;;;9.00;99.90;;;;;;10334164;28;20257;-80
2022/11/26 15:41:46;;;;;;;9.30;7.50;;;8.90;99.90;;;;;;10320437;28;20622;-80
2022/11/26 15:46:52;;;;;;;9.57;7.63;;;8.90;99.90;;;;;;10334083;28;20588;-80
2022/11/26 15:51:58;;;;;;;12.70;8.90;;;8.90;99.90;;;;;;10296592;28;20200;-80
2022/11/26 15:57:04;;;;;;;14.17;10.17;;;8.70;99.90;;;;;;10317587;28;20246;-80
2022/11/26 16:02:17;;;;;;;14.17;9.90;;;8.70;99.90;;;;;;10315629;28;20226;-80
2022/11/26 16:07:21;;;;;;;13.23;10.83;;;8.60;99.90;;;;;;10315475;28;20222;-80
2022/11/26 16:12:29;;;;;;;17.80;14.30;;;8.50;99.90;;;;;;10312770;28;20216;-79
2022/11/26 16:17:32;;;;;;;15.13;11.77;;;8.40;99.90;;;;;;10295962;28;20261;-80
2022/11/26 16:22:35;;;;;;;14.20;11.10;;;8.40;99.90;;;;;;10315153;28;20693;-80
2022/11/26 16:27:37;;;;;;;12.30;10.60;;;8.30;99.90;;;;;;10315776;28;20230;-80
2022/11/26 16:32:40;;;;;;;22.10;17.40;;;8.30;99.90;;;;;;10316201;28;20294;-81
2022/11/26 16:37:44;;;;;;;26.63;20.93;;;8.20;99.90;;;;;;10336705;28;20590;-80
2022/11/26 16:42:46;;;;;;;22.20;19.80;;;8.20;99.90;;;;;;10317388;28;20535;-79
2022/11/26 16:47:52;;;;;;;19.57;15.50;;;8.10;99.90;;;;;;10335176;28;20527;-78
2022/11/26 16:52:55;;;;;;;18.67;14.40;;;8.00;99.90;;;;;;10295106;28;20587;-78
2022/11/26 16:58:00;;;;;;;18.27;14.77;;;8.00;99.90;;;;;;10322402;28;20698;-80
2022/11/26 17:03:03;;;;;;;26.40;15.73;;;7.90;99.90;;;;;;10346930;28;20594;-79
2022/11/26 17:08:09;;;;;;;23.13;15.17;;;7.90;99.90;;;;;;10327136;28;20223;-78
2022/11/26 17:13:11;;;;;;;21.20;16.30;;;7.90;99.90;;;;;;10340885;28;20198;-79
2022/11/26 17:18:19;;;;;;;22.90;17.70;;;7.80;99.90;;;;;;10353922;28;20221;-78
2022/11/26 17:23:21;;;;;;;17.10;15.30;;;7.80;99.90;;;;;;10331499;28;20191;-78
2022/11/26 17:28:23;;;;;;;21.20;17.57;;;7.80;99.90;;;;;;10319083;28;20222;-79
2022/11/26 17:33:27;;;;;;;31.10;22.70;;;7.70;99.90;;;;;;10353010;28;20205;-79
2022/11/26 17:38:29;;;;;;;21.40;18.40;;;7.60;99.90;;;;;;10363165;28;20265;-79
2022/11/26 17:43:31;;;;;;;19.43;17.33;;;7.60;99.90;;;;;;10345619;28;20218;-79
2022/11/26 17:48:34;;;;;;;27.43;21.47;;;7.50;99.90;;;;;;10307763;28;20239;-80
2022/11/26 17:53:36;;;;;;;69.30;41.20;;;7.50;99.90;;;;;;10312344;28;20307;-80
2022/11/26 17:58:38;;;;;;;21.93;17.93;;;7.50;99.90;;;;;;10335810;28;20302;-80
2022/11/26 18:03:42;;;;;;;21.30;17.67;;;7.50;99.90;;;;;;10318409;28;20270;-80
2022/11/26 18:08:45;;;;;;;20.73;18.00;;;7.50;99.90;;;;;;10316456;28;20318;-80
2022/11/26 18:13:47;;;;;;;22.63;18.50;;;7.50;99.90;;;;;;10345505;28;20222;-80
2022/11/26 18:18:51;;;;;;;24.70;18.53;;;7.50;99.90;;;;;;10344111;28;20215;-80
2022/11/26 18:23:53;;;;;;;22.53;19.23;;;7.40;99.90;;;;;;10338338;28;20253;-80
2022/11/26 18:28:55;;;;;;;23.77;21.30;;;7.40;99.90;;;;;;10301207;28;20594;-80
2022/11/26 18:33:59;;;;;;;29.03;22.57;;;7.40;99.90;;;;;;10334793;28;20280;-80
2022/11/26 18:39:02;;;;;;;28.17;23.90;;;7.30;99.90;;;;;;10329239;28;21105;-80
2022/11/26 18:44:05;;;;;;;26.97;24.17;;;7.40;99.90;;;;;;10335457;28;20199;-80
2022/11/26 18:49:08;;;;;;;28.67;25.37;;;7.40;99.90;;;;;;10334964;28;20723;-80
2022/11/26 18:54:10;;;;;;;26.80;23.00;;;7.40;99.90;;;;;;10297785;28;20263;-80
2022/11/26 18:59:13;;;;;;;31.53;27.47;;;7.40;99.90;;;;;;10302326;28;20302;-80
2022/11/26 19:04:17;;;;;;;34.37;28.70;;;7.30;99.90;;;;;;10335859;28;20199;-80
2022/11/26 19:09:20;;;;;;;30.90;27.53;;;7.20;99.90;;;;;;10316212;23;20715;-80
2022/11/26 19:14:22;;;;;;;27.80;24.87;;;7.30;99.90;;;;;;10297640;28;20200;-81
2022/11/26 19:19:26;;;;;;;33.43;27.30;;;7.30;99.90;;;;;;10270497;28;20307;-79
2022/11/26 19:24:30;;;;;;;31.73;27.93;;;7.20;99.90;;;;;;10258739;29;20197;-78
2022/11/26 19:29:32;;;;;;;37.43;28.80;;;7.20;99.90;;;;;;10261829;29;20227;-78
2022/11/26 19:34:39;;;;;;;36.77;31.10;;;7.20;99.90;;;;;;10274474;29;20231;-78
2022/11/26 19:39:54;;;;;;;32.63;29.17;;;7.20;99.90;;;;;;10255393;28;20239;-77
2022/11/26 19:45:05;;;;;;;37.80;28.17;;;7.30;99.90;;;;;;10258894;28;20202;-79
2022/11/26 19:50:10;;;;;;;39.80;35.20;;;7.30;99.90;;;;;;10265311;29;20267;-81
2022/11/26 19:55:15;;;;;;;43.07;34.93;;;7.20;99.90;;;;;;10256242;29;20232;-78
2022/11/26 20:00:17;;;;;;;41.07;31.87;;;7.20;99.90;;;;;;10277277;28;20235;-81
2022/11/26 20:05:21;;;;;;;36.03;29.80;;;7.10;99.90;;;;;;10256789;28;20212;-78
2022/11/26 20:10:26;;;;;;;34.77;28.67;;;7.10;99.90;;;;;;10254437;29;20228;-78
2022/11/26 20:15:28;;;;;;;30.93;27.60;;;7.20;99.90;;;;;;10273335;28;20211;-78
2022/11/26 20:20:31;;;;;;;31.20;27.90;;;7.20;99.90;;;;;;10279156;29;20216;-81
2022/11/26 20:25:34;;;;;;;36.40;26.97;;;7.20;99.90;;;;;;10262376;29;20228;-81
2022/11/26 20:30:37;;;;;;;41.70;35.90;;;7.20;99.90;;;;;;10261950;28;20307;-81
2022/11/26 20:35:41;;;;;;;37.13;33.10;;;7.30;99.90;;;;;;10262168;28;20259;-77
2022/11/26 20:40:44;;;;;;;36.97;33.07;;;7.30;99.90;;;;;;10255503;29;20230;-79
2022/11/26 20:45:46;;;;;;;26.00;23.30;;;7.30;99.90;;;;;;10255997;28;20575;-81
2022/11/26 20:50:53;;;;;;;20.33;18.23;;;7.20;99.90;;;;;;10273698;28;20225;-80
2022/11/26 20:55:56;;;;;;;21.73;19.63;;;7.20;99.90;;;;;;10261530;28;20197;-77
2022/11/26 21:01:01;;;;;;;17.37;15.57;;;7.10;99.90;;;;;;10254614;28;20200;-78
2022/11/26 21:06:09;;;;;;;15.50;13.03;;;7.00;99.90;;;;;;10269313;28;20284;-77
2022/11/26 21:11:12;;;;;;;26.03;18.27;;;7.00;99.90;;;;;;10255687;29;20224;-78
2022/11/26 21:16:15;;;;;;;22.53;20.13;;;6.90;99.90;;;;;;10256594;28;20192;-78
2022/11/26 21:21:19;;;;;;;20.30;16.23;;;6.90;99.90;;;;;;10266561;28;20216;-77
2022/11/26 21:26:23;;;;;;;18.57;15.47;;;6.90;99.90;;;;;;10285784;28;20230;-80
2022/11/26 21:31:26;;;;;;;17.57;15.63;;;6.90;99.90;;;;;;10274161;28;20224;-80
2022/11/26 21:36:31;;;;;;;19.10;15.53;;;6.80;99.90;;;;;;10277189;28;20252;-78
2022/11/26 21:41:33;;;;;;;17.90;15.70;;;6.80;99.90;;;;;;10279951;28;20201;-78
2022/11/26 21:46:36;;;;;;;23.20;17.30;;;6.80;99.90;;;;;;10259331;28;20796;-77
2022/11/26 21:51:39;;;;;;;23.60;20.40;;;6.70;99.90;;;;;;10256835;28;20240;-78
2022/11/26 21:56:41;;;;;;;25.87;20.23;;;6.70;99.90;;;;;;10262414;28;20223;-77
2022/11/26 22:01:45;;;;;;;24.53;19.23;;;6.70;99.90;;;;;;10258306;28;20209;-78
2022/11/26 22:06:49;;;;;;;29.33;22.50;;;6.70;99.90;;;;;;10258805;29;20212;-78
2022/11/26 22:11:51;;;;;;;36.83;27.80;;;6.60;99.90;;;;;;10257877;29;20226;-78
2022/11/26 22:16:53;;;;;;;32.93;23.03;;;6.50;99.90;;;;;;10261452;28;20252;-79
2022/11/26 22:21:57;;;;;;;27.53;22.53;;;6.50;99.90;;;;;;10262498;28;20201;-79
2022/11/26 22:26:59;;;;;;;29.80;23.87;;;6.50;99.90;;;;;;10258722;28;20307;-78
2022/11/26 22:32:09;;;;;;;29.93;21.03;;;6.40;99.90;;;;;;10260462;28;20675;-78
2022/11/26 22:37:18;;;;;;;27.77;24.03;;;6.40;99.90;;;;;;10251205;28;20216;-78
2022/11/26 22:42:20;;;;;;;32.47;22.07;;;6.40;99.90;;;;;;10271551;28;20291;-79
2022/11/26 22:47:22;;;;;;;20.70;18.47;;;6.40;99.90;;;;;;10272208;28;20569;-79
2022/11/26 22:52:25;;;;;;;26.70;22.57;;;6.40;99.90;;;;;;10253942;28;20208;-78
2022/11/26 22:57:28;;;;;;;21.03;18.87;;;6.40;99.90;;;;;;10262929;28;20224;-78
2022/11/26 23:02:30;;;;;;;19.23;17.20;;;6.40;99.90;;;;;;10254191;28;20199;-77
2022/11/26 23:07:34;;;;;;;30.77;22.47;;;6.30;99.90;;;;;;10247540;28;20236;-77
2022/11/26 23:12:39;;;;;;;19.47;17.43;;;6.30;99.90;;;;;;10266395;28;20567;-78
2022/11/26 23:17:41;;;;;;;21.27;19.13;;;6.30;99.90;;;;;;10268977;28;20331;-78
2022/11/26 23:22:54;;;;;;;22.10;17.27;;;6.30;99.90;;;;;;10255958;28;20203;-78
2022/11/26 23:27:56;;;;;;;19.03;16.47;;;6.30;99.90;;;;;;10254715;28;20221;-78
2022/11/26 23:32:59;;;;;;;27.50;24.30;;;6.30;99.90;;;;;;10267883;28;20232;-78
2022/11/26 23:38:02;;;;;;;24.70;22.10;;;6.30;99.90;;;;;;10255090;28;20279;-78
2022/11/26 23:43:04;;;;;;;24.63;22.10;;;6.30;99.90;;;;;;10255116;28;20203;-78
2022/11/26 23:48:06;;;;;;;24.40;21.73;;;6.30;99.90;;;;;;10270826;28;20236;-78
2022/11/26 23:53:10;;;;;;;21.83;19.73;;;6.30;99.90;;;;;;10254963;28;20201;-78
2022/11/26 23:58:12;;;;;;;21.80;19.60;;;6.30;99.90;;;;;;10252950;28;20756;-77
